Time;durP1;ratioP1;P1;durP2;ratioP2;P2;SDS_P1;SDS_P2;PMS_P1;PMS_P2;Temp;Humidity;BMP_temperature;BMP_pressure;BME280_temperature;BME280_humidity;BME280_pressure;Samples;Min_cycle;Max_cycle;Signal;HPM_P1;HPM_P2
2023/01/05 00:02:14;;;;;;;0.50;0.50;;;;;;;;;;8180634;28;20656;-72
2023/01/05 00:06:19;;;;;;;0.50;0.50;;;;;;;;;;8203526;28;20029;-73
2023/01/05 00:23:15;;;;;;;1.33;0.57;;;;;;;;;;8203362;28;20382;-73
2023/01/05 00:27:16;;;;;;;0.50;0.50;;;;;;;;;;8203066;28;20031;-72
2023/01/05 00:31:16;;;;;;;0.55;0.55;;;;;;;;;;8199944;28;20146;-73
2023/01/05 00:35:16;;;;;;;0.50;0.50;;;;;;;;;;8201463;28;20026;-73
2023/01/05 00:39:17;;;;;;;0.50;0.50;;;;;;;;;;8199708;28;20026;-73
2023/01/05 00:43:17;;;;;;;0.68;0.60;;;;;;;;;;8200483;28;20144;-72
2023/01/05 00:47:17;;;;;;;0.50;0.50;;;;;;;;;;8201433;28;20204;-73
2023/01/05 00:51:17;;;;;;;0.95;0.65;;;;;;;;;;8196163;28;20045;-73
2023/01/05 00:55:17;;;;;;;0.55;0.55;;;;;;;;;;8195465;28;20030;-73
2023/01/05 00:59:18;;;;;;;0.50;0.50;;;;;;;;;;8201700;28;20042;-73
2023/01/05 01:03:18;;;;;;;0.60;0.60;;;;;;;;;;8204221;28;20298;-73
2023/01/05 01:07:18;;;;;;;0.95;0.60;;;;;;;;;;8199944;28;20026;-73
2023/01/05 01:11:19;;;;;;;0.50;0.50;;;;;;;;;;8196087;28;20037;-73
2023/01/05 01:15:19;;;;;;;0.63;0.60;;;;;;;;;;8190039;28;20146;-73
2023/01/05 01:19:20;;;;;;;0.63;0.63;;;;;;;;;;8195022;28;20018;-73
2023/01/05 01:23:20;;;;;;;0.60;0.60;;;;;;;;;;8166124;28;20888;-73
2023/01/05 01:27:21;;;;;;;0.60;0.60;;;;;;;;;;8202168;28;20041;-73
2023/01/05 01:31:21;;;;;;;0.70;0.70;;;;;;;;;;8196659;28;20035;-72
2023/01/05 01:35:21;;;;;;;0.60;0.60;;;;;;;;;;8198790;28;20030;-73
2023/01/05 01:39:21;;;;;;;0.50;0.50;;;;;;;;;;8194389;28;20660;-73
2023/01/05 01:43:39;;;;;;;0.60;0.60;;;;;;;;;;8199320;28;20031;-73
2023/01/05 01:47:44;;;;;;;0.88;0.52;;;;;;;;;;8175355;28;20101;-73
2023/01/05 01:51:46;;;;;;;0.50;0.50;;;;;;;;;;8171740;28;20038;-73
2023/01/05 01:55:47;;;;;;;0.50;0.50;;;;;;;;;;8164482;28;20101;-73
2023/01/05 01:59:48;;;;;;;0.50;0.50;;;;;;;;;;8200910;28;20022;-73
2023/01/05 02:03:48;;;;;;;0.50;0.50;;;;;;;;;;8201884;28;20826;-73
2023/01/05 02:07:48;;;;;;;0.60;0.60;;;;;;;;;;8201266;28;20036;-73
2023/01/05 02:12:07;;;;;;;0.60;0.60;;;;;;;;;;8199003;28;20054;-73
2023/01/05 02:16:18;;;;;;;0.47;0.47;;;;;;;;;;8196913;28;20784;-73
2023/01/05 02:20:21;;;;;;;0.65;0.50;;;;;;;;;;8195715;28;20038;-73
2023/01/05 02:24:36;;;;;;;1.05;0.60;;;;;;;;;;8198986;28;20568;-73
2023/01/05 02:28:48;;;;;;;1.55;0.50;;;;;;;;;;8198787;28;20026;-73
2023/01/05 02:32:48;;;;;;;1.55;0.60;;;;;;;;;;8197251;28;20771;-73
2023/01/05 02:37:09;;;;;;;1.38;0.70;;;;;;;;;;8202577;28;20026;-73
2023/01/05 02:41:18;;;;;;;2.53;0.70;;;;;;;;;;8208168;28;20022;-73
2023/01/05 02:45:20;;;;;;;4.90;1.02;;;;;;;;;;8174962;28;20058;-73
2023/01/05 02:49:20;;;;;;;2.60;1.02;;;;;;;;;;8199935;28;20061;-73
2023/01/05 02:53:41;;;;;;;4.00;0.90;;;;;;;;;;8208151;28;20157;-73
2023/01/05 02:57:46;;;;;;;2.60;0.60;;;;;;;;;;8188139;28;20026;-73
2023/01/05 03:02:06;;;;;;;2.15;0.70;;;;;;;;;;8205693;28;20240;-72
2023/01/05 03:06:09;;;;;;;0.88;0.60;;;;;;;;;;8194152;28;20035;-73
2023/01/05 03:14:37;;;;;;;1.98;0.60;;;;;;;;;;8207742;28;20152;-73
2023/01/05 03:19:34;;;;;;;2.08;0.57;;;;;;;;;;8206480;28;20307;-73
2023/01/05 03:36:02;;;;;;;4.90;1.15;;;;;;;;;;8206515;28;20086;-73
2023/01/05 03:40:05;;;;;;;7.07;1.20;;;;;;;;;;8206610;28;20026;-73
2023/01/05 03:44:05;;;;;;;6.18;1.20;;;;;;;;;;8206596;28;20023;-73
2023/01/05 03:48:06;;;;;;;8.77;1.40;;;;;;;;;;8206841;28;20593;-73
2023/01/05 03:52:07;;;;;;;6.68;1.63;;;;;;;;;;8208030;28;20358;-73
2023/01/05 03:56:07;;;;;;;8.85;1.70;;;;;;;;;;8206634;28;20083;-73
2023/01/05 04:00:07;;;;;;;9.88;2.42;;;;;;;;;;8205784;28;20547;-73
2023/01/05 04:04:08;;;;;;;10.48;2.00;;;;;;;;;;8195486;28;20026;-72
2023/01/05 04:08:08;;;;;;;14.93;2.63;;;;;;;;;;8206629;28;20015;-72
2023/01/05 04:12:08;;;;;;;12.80;2.37;;;;;;;;;;8206490;28;20053;-73
2023/01/05 04:16:09;;;;;;;10.77;1.88;;;;;;;;;;8195148;28;20376;-73
2023/01/05 04:20:09;;;;;;;8.73;1.83;;;;;;;;;;8196789;28;20022;-72
2023/01/05 04:24:10;;;;;;;9.57;2.05;;;;;;;;;;8198543;28;20282;-73
2023/01/05 04:28:10;;;;;;;10.88;1.95;;;;;;;;;;8190215;28;20011;-73
2023/01/05 04:32:10;;;;;;;13.57;2.35;;;;;;;;;;8205168;28;20038;-72
2023/01/05 04:36:10;;;;;;;9.15;1.95;;;;;;;;;;8207890;28;20034;-73
2023/01/05 04:40:11;;;;;;;9.52;1.90;;;;;;;;;;8205166;28;20422;-72
2023/01/05 04:44:11;;;;;;;13.85;2.17;;;;;;;;;;8205825;28;20027;-73
2023/01/05 04:48:11;;;;;;;12.38;2.40;;;;;;;;;;8205325;28;20081;-73
2023/01/05 04:52:11;;;;;;;11.13;2.00;;;;;;;;;;8203462;28;20145;-72
2023/01/05 04:56:11;;;;;;;7.07;2.20;;;;;;;;;;8192388;28;20022;-73
2023/01/05 05:00:12;;;;;;;10.05;1.92;;;;;;;;;;8203689;28;20034;-73
2023/01/05 05:04:12;;;;;;;6.75;1.60;;;;;;;;;;8203268;28;20060;-73
2023/01/05 05:08:13;;;;;;;10.80;1.88;;;;;;;;;;8205806;28;20130;-73
2023/01/05 05:12:14;;;;;;;9.38;2.05;;;;;;;;;;8205636;28;20019;-73
2023/01/05 05:16:14;;;;;;;11.30;2.35;;;;;;;;;;8202317;28;20042;-72
2023/01/05 05:20:14;;;;;;;10.70;1.90;;;;;;;;;;8194812;28;20179;-73
2023/01/05 05:24:15;;;;;;;13.35;2.53;;;;;;;;;;8203424;28;20077;-73
2023/01/05 05:28:15;;;;;;;11.45;2.17;;;;;;;;;;8203275;28;20031;-72
2023/01/05 05:32:15;;;;;;;7.75;1.80;;;;;;;;;;8204546;28;20039;-72
2023/01/05 05:36:16;;;;;;;11.83;2.53;;;;;;;;;;8203728;28;20862;-72
2023/01/05 05:40:17;;;;;;;9.30;1.70;;;;;;;;;;8192956;28;20763;-73
2023/01/05 05:44:17;;;;;;;14.77;2.05;;;;;;;;;;8202153;28;20022;-72
2023/01/05 05:48:18;;;;;;;12.70;2.30;;;;;;;;;;8200309;28;20039;-72
2023/01/05 05:52:18;;;;;;;11.43;1.75;;;;;;;;;;8203375;28;20026;-73
2023/01/05 05:56:18;;;;;;;6.55;1.65;;;;;;;;;;8204667;28;20034;-72
2023/01/05 06:00:18;;;;;;;8.68;2.13;;;;;;;;;;8203421;28;20069;-73
2023/01/05 06:04:20;;;;;;;11.90;2.28;;;;;;;;;;8193068;28;20062;-72
2023/01/05 06:08:20;;;;;;;12.40;1.90;;;;;;;;;;8203228;28;20031;-72
2023/01/05 06:12:20;;;;;;;11.77;1.80;;;;;;;;;;8204548;28;20034;-74
2023/01/05 06:16:21;;;;;;;10.73;1.70;;;;;;;;;;8203723;28;20046;-73
2023/01/05 06:20:21;;;;;;;9.65;2.28;;;;;;;;;;8200876;28;20113;-72
2023/01/05 06:24:21;;;;;;;9.17;2.37;;;;;;;;;;8202301;28;20034;-74
2023/01/05 06:28:21;;;;;;;14.95;2.80;;;;;;;;;;8202475;28;20181;-73
2023/01/05 06:32:21;;;;;;;8.82;2.20;;;;;;;;;;8203155;28;20049;-73
2023/01/05 06:36:22;;;;;;;15.32;2.75;;;;;;;;;;8200876;28;20026;-73
2023/01/05 06:40:22;;;;;;;15.00;2.22;;;;;;;;;;8203828;28;20149;-73
2023/01/05 06:44:22;;;;;;;12.15;2.00;;;;;;;;;;8201991;28;20073;-73
2023/01/05 06:48:22;;;;;;;8.38;2.63;;;;;;;;;;8201583;28;20066;-73
2023/01/05 06:52:23;;;;;;;18.40;2.45;;;;;;;;;;8203088;28;20043;-73
2023/01/05 06:56:24;;;;;;;13.52;2.38;;;;;;;;;;8202090;28;20084;-73
2023/01/05 07:00:24;;;;;;;8.63;1.83;;;;;;;;;;8201531;28;20048;-73
2023/01/05 07:04:24;;;;;;;12.03;2.33;;;;;;;;;;8202257;28;20988;-73
2023/01/05 07:08:24;;;;;;;13.55;2.30;;;;;;;;;;8202588;28;20273;-73
2023/01/05 07:12:25;;;;;;;13.20;2.43;;;;;;;;;;8198276;28;20110;-74
2023/01/05 07:16:25;;;;;;;11.05;1.70;;;;;;;;;;8205443;28;20398;-73
2023/01/05 07:20:25;;;;;;;12.00;2.03;;;;;;;;;;8206561;28;20041;-73
2023/01/05 07:24:25;;;;;;;9.50;1.73;;;;;;;;;;8206441;28;20266;-72
2023/01/05 07:28:26;;;;;;;12.95;2.28;;;;;;;;;;8196575;28;20284;-73
2023/01/05 07:32:26;;;;;;;11.52;2.10;;;;;;;;;;8207281;28;20137;-72
2023/01/05 07:36:26;;;;;;;12.50;2.10;;;;;;;;;;8206285;28;20137;-73
2023/01/05 07:40:27;;;;;;;11.37;2.10;;;;;;;;;;8205297;28;20104;-73
2023/01/05 07:44:27;;;;;;;12.02;2.10;;;;;;;;;;8188364;28;20434;-73
2023/01/05 07:48:27;;;;;;;8.37;1.60;;;;;;;;;;8204927;28;20817;-73
2023/01/05 07:52:29;;;;;;;12.07;2.23;;;;;;;;;;8205739;28;20293;-74
2023/01/05 07:56:29;;;;;;;9.77;2.28;;;;;;;;;;8196230;28;20058;-74
2023/01/05 08:00:29;;;;;;;14.57;1.85;;;;;;;;;;8202236;28;20129;-73
2023/01/05 08:04:30;;;;;;;13.25;1.90;;;;;;;;;;8206384;28;20830;-74
2023/01/05 08:08:30;;;;;;;8.70;1.60;;;;;;;;;;8204131;28;20030;-73
2023/01/05 08:12:30;;;;;;;9.48;1.67;;;;;;;;;;8190802;28;20026;-73
2023/01/05 08:16:31;;;;;;;6.30;1.40;;;;;;;;;;8185437;28;20132;-74
2023/01/05 08:20:31;;;;;;;14.70;2.05;;;;;;;;;;8187891;28;20058;-74
2023/01/05 08:24:31;;;;;;;6.82;1.50;;;;;;;;;;8200580;28;20106;-73
2023/01/05 08:28:34;;;;;;;9.33;1.63;;;;;;;;;;8187056;28;20149;-74
2023/01/05 08:32:35;;;;;;;12.10;1.95;;;;;;;;;;8200984;28;21221;-73
2023/01/05 08:36:35;;;;;;;14.18;2.35;;;;;;;;;;8202999;28;20078;-73
2023/01/05 08:40:36;;;;;;;20.17;3.40;;;;;;;;;;8202011;28;20026;-73
2023/01/05 08:44:36;;;;;;;14.20;2.65;;;;;;;;;;8188536;28;20341;-73
2023/01/05 08:48:37;;;;;;;12.80;2.17;;;;;;;;;;8201815;28;20442;-73
2023/01/05 08:52:37;;;;;;;12.07;2.47;;;;;;;;;;8187071;28;20027;-73
2023/01/05 08:56:37;;;;;;;17.20;2.50;;;;;;;;;;8202614;28;20262;-73
2023/01/05 09:00:38;;;;;;;15.70;2.83;;;;;;;;;;8202875;28;20034;-73
2023/01/05 09:04:38;;;;;;;16.52;2.72;;;;;;;;;;8194438;28;20033;-73
2023/01/05 09:08:39;;;;;;;12.43;2.37;;;;;;;;;;8191628;28;20077;-73
2023/01/05 09:12:39;;;;;;;16.30;2.75;;;;;;;;;;8201945;28;20273;-73
2023/01/05 09:16:39;;;;;;;13.60;2.83;;;;;;;;;;8194679;28;20125;-73
2023/01/05 09:20:40;;;;;;;17.70;3.03;;;;;;;;;;8203530;28;20085;-73
2023/01/05 09:24:40;;;;;;;17.53;2.80;;;;;;;;;;8201318;28;20305;-73
2023/01/05 09:28:41;;;;;;;13.77;2.72;;;;;;;;;;8201972;28;20125;-73
2023/01/05 09:32:41;;;;;;;15.82;3.33;;;;;;;;;;8202485;28;20043;-73
2023/01/05 09:36:41;;;;;;;12.37;2.00;;;;;;;;;;8203462;28;20031;-72
2023/01/05 09:40:42;;;;;;;13.02;2.50;;;;;;;;;;8201330;28;20254;-74
2023/01/05 09:44:47;;;;;;;19.58;3.22;;;;;;;;;;8202802;28;20030;-73
2023/01/05 09:48:52;;;;;;;17.83;2.67;;;;;;;;;;8182932;28;20291;-73
2023/01/05 09:52:53;;;;;;;16.48;3.17;;;;;;;;;;8202874;28;20037;-73
2023/01/05 09:56:54;;;;;;;15.65;3.17;;;;;;;;;;8201306;28;20041;-73
2023/01/05 10:01:04;;;;;;;18.50;3.25;;;;;;;;;;8201829;28;20042;-73
2023/01/05 10:05:05;;;;;;;13.07;2.38;;;;;;;;;;8201929;28;20153;-74
2023/01/05 10:09:06;;;;;;;15.48;2.55;;;;;;;;;;8201624;28;20065;-74
2023/01/05 10:13:10;;;;;;;16.55;3.50;;;;;;;;;;8201922;28;20149;-73
2023/01/05 10:17:10;;;;;;;;;;;;;;;;;;8204018;28;20047;-73
2023/01/05 10:21:25;;;;;;;12.00;2.78;;;;;;;;;;8199924;28;20820;-73
2023/01/05 10:25:41;;;;;;;12.45;2.83;;;;;;;;;;8202208;28;20030;-73
2023/01/05 10:29:43;;;;;;;14.27;3.08;;;;;;;;;;8200315;28;20049;-73
2023/01/05 10:33:48;;;;;;;12.18;2.53;;;;;;;;;;8200560;28;20034;-73
2023/01/05 10:37:58;;;;;;;15.13;2.50;;;;;;;;;;8198449;28;20038;-74
2023/01/05 10:41:58;;;;;;;10.82;2.40;;;;;;;;;;8201210;28;20047;-73
2023/01/05 10:46:00;;;;;;;12.95;2.60;;;;;;;;;;8191629;28;20546;-74
2023/01/05 10:50:01;;;;;;;15.65;2.65;;;;;;;;;;8205049;28;20030;-73
2023/01/05 10:54:02;;;;;;;10.82;2.38;;;;;;;;;;8189523;28;20423;-73
2023/01/05 10:58:02;;;;;;;12.20;2.78;;;;;;;;;;8206713;28;20077;-74
2023/01/05 11:02:02;;;;;;;17.10;2.80;;;;;;;;;;8204372;28;20046;-73
2023/01/05 11:06:03;;;;;;;12.38;2.95;;;;;;;;;;8206412;28;21340;-73
2023/01/05 11:10:03;;;;;;;15.30;2.63;;;;;;;;;;8204591;28;20049;-74
2023/01/05 11:14:05;;;;;;;12.88;2.63;;;;;;;;;;8206426;28;20503;-73
2023/01/05 11:18:06;;;;;;;13.20;2.97;;;;;;;;;;8203448;28;20128;-74
2023/01/05 11:22:26;;;;;;;10.48;2.80;;;;;;;;;;8204111;28;20030;-74
2023/01/05 11:26:28;;;;;;;15.30;3.00;;;;;;;;;;8203737;28;20027;-74
2023/01/05 11:30:29;;;;;;;14.55;3.08;;;;;;;;;;8203596;28;20065;-74
2023/01/05 11:34:33;;;;;;;12.45;2.42;;;;;;;;;;8205593;28;20031;-74
2023/01/05 11:38:33;;;;;;;14.20;2.63;;;;;;;;;;8201407;28;20756;-74
2023/01/05 11:42:35;;;;;;;12.60;2.72;;;;;;;;;;8193548;28;20084;-73
2023/01/05 11:46:39;;;;;;;16.00;2.67;;;;;;;;;;8205879;28;20743;-74
2023/01/05 11:50:45;;;;;;;13.30;2.53;;;;;;;;;;8202526;28;20019;-74
2023/01/05 11:54:45;;;;;;;14.45;2.83;;;;;;;;;;8201405;28;20692;-73
2023/01/05 11:58:47;;;;;;;20.00;2.97;;;;;;;;;;8203503;28;20038;-74
2023/01/05 12:02:53;;;;;;;15.48;2.97;;;;;;;;;;8201100;28;20693;-74
2023/01/05 12:07:12;;;;;;;13.73;2.30;;;;;;;;;;8195999;28;20030;-74
2023/01/05 12:11:16;;;;;;;15.00;3.03;;;;;;;;;;8202717;28;20027;-74
2023/01/05 12:15:26;;;;;;;18.70;3.47;;;;;;;;;;8202379;28;20989;-74
2023/01/05 12:19:45;;;;;;;16.88;2.95;;;;;;;;;;8201171;28;20145;-74
2023/01/05 12:23:45;;;;;;;14.85;2.70;;;;;;;;;;8204419;28;20038;-74
2023/01/05 12:27:51;;;;;;;15.15;2.90;;;;;;;;;;8201987;28;20022;-74
2023/01/05 12:32:10;;;;;;;11.82;2.72;;;;;;;;;;8203860;28;20094;-74
2023/01/05 12:36:18;;;;;;;14.43;2.58;;;;;;;;;;8201920;28;20300;-73
2023/01/05 12:40:21;;;;;;;12.85;2.47;;;;;;;;;;8193056;28;20065;-73
2023/01/05 12:44:28;;;;;;;15.52;2.78;;;;;;;;;;8201150;28;20101;-73
2023/01/05 12:48:32;;;;;;;18.58;2.95;;;;;;;;;;8201840;28;20157;-73
2023/01/05 12:52:40;;;;;;;18.92;3.17;;;;;;;;;;8202686;28;20077;-74
2023/01/05 12:56:50;;;;;;;17.52;3.15;;;;;;;;;;8195560;28;20037;-73
2023/01/05 13:00:51;;;;;;;14.82;2.58;;;;;;;;;;8201804;28;20027;-74
2023/01/05 13:05:07;;;;;;;12.25;2.83;;;;;;;;;;8197954;28;20770;-73
2023/01/05 13:09:21;;;;;;;20.63;2.60;;;;;;;;;;8198407;28;20928;-73
2023/01/05 13:13:25;;;;;;;12.68;2.42;;;;;;;;;;8199219;28;20026;-74
2023/01/05 13:17:37;;;;;;;11.48;2.45;;;;;;;;;;8198706;28;20471;-73
2023/01/05 13:21:40;;;;;;;17.02;2.65;;;;;;;;;;8199653;28;20111;-73
2023/01/05 13:25:59;;;;;;;17.13;2.50;;;;;;;;;;8200508;28;20026;-73
2023/01/05 13:30:01;;;;;;;15.68;3.53;;;;;;;;;;8200129;28;20030;-74
2023/01/05 13:34:20;;;;;;;18.50;3.10;;;;;;;;;;8199919;28;20069;-73
2023/01/05 13:38:23;;;;;;;18.50;3.08;;;;;;;;;;8198017;28;21027;-73
2023/01/05 13:42:35;;;;;;;12.77;2.67;;;;;;;;;;8199165;28;20693;-73
2023/01/05 13:46:41;;;;;;;11.48;2.83;;;;;;;;;;8200971;28;20038;-73
2023/01/05 13:50:42;;;;;;;9.15;2.40;;;;;;;;;;8200389;28;20121;-73
2023/01/05 13:54:51;;;;;;;11.70;2.67;;;;;;;;;;8200720;28;20383;-73
2023/01/05 13:59:00;;;;;;;24.30;3.28;;;;;;;;;;8196964;28;20014;-73
2023/01/05 14:03:06;;;;;;;13.90;2.63;;;;;;;;;;8199715;28;20046;-74
2023/01/05 14:07:11;;;;;;;16.65;2.60;;;;;;;;;;8181647;28;20044;-74
2023/01/05 14:11:15;;;;;;;17.73;2.70;;;;;;;;;;8199224;28;20027;-73
2023/01/05 14:15:34;;;;;;;12.93;2.90;;;;;;;;;;8196848;28;20023;-74
2023/01/05 14:19:34;;;;;;;19.98;2.60;;;;;;;;;;8197757;28;20026;-74
2023/01/05 14:23:34;;;;;;;14.85;2.60;;;;;;;;;;8192385;28;20027;-74
2023/01/05 14:27:54;;;;;;;13.57;2.72;;;;;;;;;;8205690;28;20573;-74
2023/01/05 14:31:55;;;;;;;12.95;2.47;;;;;;;;;;8206245;28;20553;-73
2023/01/05 14:35:55;;;;;;;14.70;2.65;;;;;;;;;;8206880;28;20066;-73
2023/01/05 14:39:55;;;;;;;15.80;2.87;;;;;;;;;;8205285;28;20041;-73
2023/01/05 14:43:57;;;;;;;15.20;3.17;;;;;;;;;;8204617;28;20126;-74
2023/01/05 14:47:58;;;;;;;18.85;3.22;;;;;;;;;;8203670;28;20711;-73
2023/01/05 14:52:00;;;;;;;13.95;3.03;;;;;;;;;;8205213;28;20035;-73
2023/01/05 14:56:00;;;;;;;21.63;2.72;;;;;;;;;;8205161;28;20027;-73
2023/01/05 15:00:05;;;;;;;15.50;3.47;;;;;;;;;;8204275;28;20149;-75
2023/01/05 15:04:07;;;;;;;16.30;3.25;;;;;;;;;;8205333;28;20058;-74
2023/01/05 15:08:19;;;;;;;16.42;2.55;;;;;;;;;;8204154;28;20046;-74
2023/01/05 15:12:20;;;;;;;12.32;2.92;;;;;;;;;;8182871;28;20058;-75
2023/01/05 15:16:30;;;;;;;14.15;3.25;;;;;;;;;;8203378;28;20042;-74
2023/01/05 15:20:45;;;;;;;16.50;2.85;;;;;;;;;;8229427;23;20553;-62
2023/01/05 15:25:08;;;;;;;14.27;2.78;;;;;;;;;;8218023;23;20058;-62
2023/01/05 15:29:19;;;;;;;14.77;2.55;;;;;;;;;;8156476;28;20622;-62
2023/01/05 15:33:25;;;;;;;15.05;2.83;;;;;;;;;;8193682;28;20584;-62
2023/01/05 15:37:36;;;;;;;11.93;2.50;;;;;;;;;;8192013;28;20100;-62
2023/01/05 15:41:36;;;;;;;15.55;3.13;;;;;;;;;;8192733;28;20349;-62
2023/01/05 15:45:41;;;;;;;12.32;3.20;;;;;;;;;;8193692;28;20133;-62
2023/01/05 15:49:42;;;;;;;14.45;2.65;;;;;;;;;;8189428;28;20022;-62
2023/01/05 15:53:51;;;;;;;13.52;2.72;;;;;;;;;;8196058;28;20058;-62
2023/01/05 15:57:54;;;;;;;13.10;2.75;;;;;;;;;;8200123;28;20022;-62
2023/01/05 16:01:54;;;;;;;13.52;2.40;;;;;;;;;;8199904;28;20541;-62
2023/01/05 16:05:59;;;;;;;17.13;2.80;;;;;;;;;;8201523;28;20105;-63
2023/01/05 16:09:59;;;;;;;12.23;2.60;;;;;;;;;;8201974;28;20018;-63
2023/01/05 16:13:59;;;;;;;16.47;2.73;;;;;;;;;;8157773;28;20055;-62
2023/01/05 16:18:00;;;;;;;15.10;2.92;;;;;;;;;;8143139;28;20297;-63
2023/01/05 16:22:04;;;;;;;15.45;2.40;;;;;;;;;;8157002;28;20635;-62
2023/01/05 16:26:05;;;;;;;;;;;;;;;;;;8191145;28;20116;-62
2023/01/05 16:30:13;;;;;;;12.00;2.40;;;;;;;;;;8220101;28;20032;-62
2023/01/05 16:34:15;;;;;;;12.13;2.78;;;;;;;;;;8231571;28;20029;-62
2023/01/05 16:38:26;;;;;;;15.07;2.92;;;;;;;;;;8231929;28;20029;-62
2023/01/05 16:42:38;;;;;;;13.75;2.58;;;;;;;;;;8220489;28;20427;-62
2023/01/05 16:46:40;;;;;;;15.68;2.72;;;;;;;;;;8231447;28;20149;-62
2023/01/05 16:50:54;;;;;;;15.77;2.83;;;;;;;;;;8228981;28;20375;-62
2023/01/05 16:55:13;;;;;;;18.75;2.58;;;;;;;;;;8231874;28;20084;-62
2023/01/05 16:59:31;;;;;;;14.98;2.40;;;;;;;;;;8228616;28;20126;-63
2023/01/05 17:03:32;;;;;;;13.40;2.75;;;;;;;;;;8231092;28;20045;-62
2023/01/05 17:07:33;;;;;;;17.30;3.38;;;;;;;;;;8230606;28;20030;-62
2023/01/05 17:11:34;;;;;;;13.55;2.55;;;;;;;;;;8229660;28;20030;-62
2023/01/05 17:15:35;;;;;;;12.95;2.40;;;;;;;;;;8229782;28;20038;-63
2023/01/05 17:19:35;;;;;;;17.27;2.63;;;;;;;;;;8231317;28;20080;-63
2023/01/05 17:23:41;;;;;;;15.80;3.05;;;;;;;;;;8230170;28;20030;-62
2023/01/05 17:27:41;;;;;;;16.35;3.13;;;;;;;;;;8229756;28;20027;-62
2023/01/05 17:31:41;;;;;;;17.58;3.10;;;;;;;;;;8228285;28;20041;-62
2023/01/05 17:35:41;;;;;;;13.73;2.83;;;;;;;;;;8229939;28;20058;-62
2023/01/05 17:39:42;;;;;;;17.15;2.75;;;;;;;;;;8229785;28;20061;-62
2023/01/05 17:43:43;;;;;;;17.15;3.13;;;;;;;;;;8227841;28;20107;-62
2023/01/05 17:47:43;;;;;;;11.95;2.67;;;;;;;;;;8223956;28;20036;-62
2023/01/05 17:51:44;;;;;;;15.45;2.38;;;;;;;;;;8230140;28;20769;-62
2023/01/05 17:55:44;;;;;;;11.20;2.25;;;;;;;;;;8230860;28;20034;-63
2023/01/05 17:59:45;;;;;;;9.43;2.50;;;;;;;;;;8226109;28;20030;-63
2023/01/05 18:03:45;;;;;;;12.00;2.38;;;;;;;;;;8231004;28;20288;-62
2023/01/05 18:07:46;;;;;;;12.90;2.50;;;;;;;;;;8226826;28;20060;-62
2023/01/05 18:11:46;;;;;;;15.07;2.80;;;;;;;;;;8223724;28;20388;-62
2023/01/05 18:15:49;;;;;;;9.57;2.03;;;;;;;;;;8223626;28;20038;-62
2023/01/05 18:19:49;;;;;;;10.82;2.60;;;;;;;;;;8226515;28;20049;-62
2023/01/05 18:23:49;;;;;;;8.97;2.03;;;;;;;;;;8226684;28;20014;-62
2023/01/05 18:27:50;;;;;;;10.40;2.00;;;;;;;;;;8227950;28;20280;-62
2023/01/05 18:31:51;;;;;;;8.40;1.88;;;;;;;;;;8227411;28;20038;-62
2023/01/05 18:35:52;;;;;;;7.15;1.60;;;;;;;;;;8229451;28;20033;-62
2023/01/05 18:39:52;;;;;;;8.00;2.05;;;;;;;;;;8228704;28;20026;-62
2023/01/05 18:43:52;;;;;;;6.32;1.92;;;;;;;;;;8226896;28;20069;-62
2023/01/05 18:47:57;;;;;;;9.80;2.17;;;;;;;;;;8226502;28;20441;-62
2023/01/05 18:51:57;;;;;;;6.63;2.08;;;;;;;;;;8229639;28;20053;-62
2023/01/05 18:55:57;;;;;;;11.73;2.17;;;;;;;;;;8226717;28;20026;-62
2023/01/05 18:59:57;;;;;;;5.68;1.50;;;;;;;;;;8228215;28;20022;-62
2023/01/05 19:03:59;;;;;;;7.78;1.40;;;;;;;;;;8227718;28;20045;-62
2023/01/05 19:07:59;;;;;;;3.85;1.48;;;;;;;;;;8226667;28;20025;-62
2023/01/05 19:11:59;;;;;;;6.73;1.27;;;;;;;;;;8231293;28;20133;-62
2023/01/05 19:16:00;;;;;;;4.07;1.15;;;;;;;;;;8232181;28;20687;-62
2023/01/05 19:20:00;;;;;;;4.90;1.10;;;;;;;;;;8172374;28;20049;-62
2023/01/05 19:24:01;;;;;;;2.72;0.90;;;;;;;;;;8235404;28;20029;-62
2023/01/05 19:28:01;;;;;;;2.92;0.75;;;;;;;;;;8227285;28;20023;-62
2023/01/05 19:32:01;;;;;;;3.22;1.00;;;;;;;;;;8236668;28;20755;-62
2023/01/05 19:36:01;;;;;;;1.58;0.70;;;;;;;;;;8238379;28;20045;-62
2023/01/05 19:40:02;;;;;;;0.85;0.65;;;;;;;;;;8237495;28;20030;-62
2023/01/05 19:44:02;;;;;;;2.93;0.93;;;;;;;;;;8238358;28;20037;-62
2023/01/05 19:48:04;;;;;;;2.20;0.90;;;;;;;;;;8237293;28;20276;-62
2023/01/05 19:52:04;;;;;;;1.65;0.60;;;;;;;;;;8238786;28;20037;-62
2023/01/05 19:56:05;;;;;;;1.33;0.88;;;;;;;;;;8236421;28;20018;-62
2023/01/05 20:00:06;;;;;;;1.67;0.70;;;;;;;;;;8235178;28;20038;-62
2023/01/05 20:04:06;;;;;;;1.25;1.02;;;;;;;;;;8230268;28;20049;-62
2023/01/05 20:08:06;;;;;;;1.88;1.20;;;;;;;;;;8234280;28;20026;-62
2023/01/05 20:12:06;;;;;;;2.58;1.38;;;;;;;;;;8230789;28;20080;-63
2023/01/05 20:16:09;;;;;;;3.73;1.47;;;;;;;;;;8216796;28;20058;-63
2023/01/05 20:20:10;;;;;;;2.45;1.48;;;;;;;;;;8232758;28;20379;-63
2023/01/05 20:24:13;;;;;;;3.13;1.77;;;;;;;;;;8234029;28;20026;-62
2023/01/05 20:28:13;;;;;;;1.75;1.33;;;;;;;;;;8230434;28;20028;-63
2023/01/05 20:32:15;;;;;;;2.87;1.77;;;;;;;;;;8235052;28;20046;-63
2023/01/05 20:36:16;;;;;;;2.63;1.52;;;;;;;;;;8232930;28;20036;-62
2023/01/05 20:40:16;;;;;;;3.35;1.60;;;;;;;;;;8233406;28;20056;-63
2023/01/05 20:44:20;;;;;;;1.90;1.30;;;;;;;;;;8229552;28;20064;-62
2023/01/05 20:48:24;;;;;;;1.10;1.10;;;;;;;;;;8228073;28;20052;-62
2023/01/05 20:52:24;;;;;;;2.40;1.45;;;;;;;;;;8233199;28;20080;-62
2023/01/05 20:56:26;;;;;;;1.33;1.10;;;;;;;;;;8232912;28;20213;-62
2023/01/05 21:00:27;;;;;;;1.38;1.30;;;;;;;;;;8231251;28;20720;-62
2023/01/05 21:04:29;;;;;;;1.63;1.20;;;;;;;;;;8235031;28;20142;-62
2023/01/05 21:08:29;;;;;;;1.40;1.30;;;;;;;;;;8231215;28;20030;-62
2023/01/05 21:12:29;;;;;;;1.40;1.30;;;;;;;;;;8228129;28;20129;-62
2023/01/05 21:16:31;;;;;;;1.33;1.03;;;;;;;;;;8230030;28;20586;-62
2023/01/05 21:20:31;;;;;;;4.85;1.60;;;;;;;;;;8215265;28;20343;-62
2023/01/05 21:24:32;;;;;;;1.40;1.30;;;;;;;;;;8232280;28;20025;-62
2023/01/05 21:28:32;;;;;;;1.93;1.43;;;;;;;;;;8233312;28;20030;-62
2023/01/05 21:32:32;;;;;;;1.75;1.65;;;;;;;;;;8229329;28;20325;-62
2023/01/05 21:36:34;;;;;;;1.75;1.65;;;;;;;;;;8231978;28;20026;-62
2023/01/05 21:40:35;;;;;;;1.92;1.70;;;;;;;;;;8232256;28;20033;-62
2023/01/05 21:44:35;;;;;;;3.88;1.80;;;;;;;;;;8231423;28;20022;-62
2023/01/05 21:48:36;;;;;;;2.85;1.80;;;;;;;;;;8231911;28;20052;-62
2023/01/05 21:56:57;;;;;;;3.03;1.75;;;;;;;;;;8231020;28;20037;-62
2023/01/05 22:00:58;;;;;;;1.85;1.75;;;;;;;;;;8232576;28;20714;-63
2023/01/05 22:04:59;;;;;;;1.63;1.52;;;;;;;;;;8231637;28;20058;-62
2023/01/05 22:08:59;;;;;;;2.20;1.90;;;;;;;;;;8230478;28;20521;-63
2023/01/05 22:13:00;;;;;;;2.50;1.80;;;;;;;;;;8233226;28;20153;-63
2023/01/05 22:17:00;;;;;;;1.80;1.60;;;;;;;;;;8230819;28;20045;-62
2023/01/05 22:21:03;;;;;;;3.17;1.98;;;;;;;;;;8230680;28;20308;-62
2023/01/05 22:25:03;;;;;;;1.95;1.55;;;;;;;;;;8232343;28;20702;-62
2023/01/05 22:29:03;;;;;;;1.33;1.10;;;;;;;;;;8229210;28;20030;-62
2023/01/05 22:33:04;;;;;;;1.40;1.30;;;;;;;;;;8231258;28;20164;-62
2023/01/05 22:37:04;;;;;;;1.08;1.08;;;;;;;;;;8229349;28;21789;-62
2023/01/05 22:41:05;;;;;;;0.87;0.87;;;;;;;;;;8228330;28;20032;-62
2023/01/05 22:45:05;;;;;;;0.90;0.82;;;;;;;;;;8233504;28;20026;-62
2023/01/05 22:49:06;;;;;;;0.82;0.82;;;;;;;;;;8237959;28;20022;-63
2023/01/05 22:53:06;;;;;;;0.60;0.60;;;;;;;;;;8236825;28;20588;-62
2023/01/05 22:57:07;;;;;;;0.70;0.70;;;;;;;;;;8238672;28;20026;-62
2023/01/05 23:01:08;;;;;;;0.60;0.60;;;;;;;;;;8235415;28;20052;-63
2023/01/05 23:05:08;;;;;;;0.50;0.50;;;;;;;;;;8237465;28;21170;-62
2023/01/05 23:09:11;;;;;;;0.60;0.60;;;;;;;;;;8236958;28;20031;-62
2023/01/05 23:13:11;;;;;;;0.50;0.50;;;;;;;;;;8235167;28;20583;-62
2023/01/05 23:17:11;;;;;;;0.70;0.70;;;;;;;;;;8234544;28;20061;-62
2023/01/05 23:21:13;;;;;;;0.70;0.70;;;;;;;;;;8237584;28;20026;-63
2023/01/05 23:25:13;;;;;;;0.50;0.50;;;;;;;;;;8233599;28;20875;-62
2023/01/05 23:29:16;;;;;;;0.70;0.70;;;;;;;;;;8248742;28;20025;-63
2023/01/05 23:33:17;;;;;;;1.27;0.70;;;;;;;;;;8235352;28;20042;-63
2023/01/05 23:37:17;;;;;;;0.70;0.70;;;;;;;;;;8236451;28;20026;-62
2023/01/05 23:41:18;;;;;;;0.60;0.60;;;;;;;;;;8239788;28;20107;-63
2023/01/05 23:45:18;;;;;;;0.60;0.60;;;;;;;;;;8237095;28;20025;-63
2023/01/05 23:49:18;;;;;;;0.73;0.73;;;;;;;;;;8238081;28;20022;-62
2023/01/05 23:53:18;;;;;;;0.87;0.87;;;;;;;;;;8239367;28;20057;-62
2023/01/05 23:57:18;;;;;;;0.87;0.80;;;;;;;;;;8237878;28;20102;-63
